createdAt,value
2023-02-18T00:02:23.410Z,30.76
2023-02-18T00:04:54.503Z,30.73
2023-02-18T00:07:21.396Z,30.62
2023-02-18T00:09:48.243Z,30.72
2023-02-18T00:12:15.129Z,30.76
2023-02-18T00:14:41.939Z,30.80
2023-02-18T00:17:08.780Z,30.87
2023-02-18T00:19:35.675Z,30.82
2023-02-18T00:22:04.098Z,30.75
2023-02-18T00:24:31.011Z,30.58
2023-02-18T00:26:57.880Z,30.68
2023-02-18T00:29:24.772Z,30.69
2023-02-18T00:31:51.706Z,30.87
2023-02-18T00:34:18.899Z,30.85
2023-02-18T00:36:45.721Z,30.73
2023-02-18T00:39:13.986Z,30.83
2023-02-18T00:41:42.226Z,30.94
2023-02-18T00:44:09.835Z,30.84
2023-02-18T00:46:37.022Z,30.62
2023-02-18T00:49:04.679Z,30.85
2023-02-18T00:51:31.659Z,30.92
2023-02-18T00:53:58.853Z,30.87
2023-02-18T00:56:27.137Z,30.87
2023-02-18T00:58:54.553Z,30.84
2023-02-18T01:01:21.864Z,30.96
2023-02-18T01:03:48.796Z,31.04
2023-02-18T01:06:15.895Z,30.85
2023-02-18T01:08:43.019Z,30.96
2023-02-18T01:11:11.479Z,30.90
2023-02-18T01:13:40.529Z,30.87
2023-02-18T01:16:08.501Z,30.95
2023-02-18T01:18:36.231Z,30.92
2023-02-18T01:21:08.467Z,31.15
2023-02-18T01:23:36.742Z,31.06
2023-02-18T01:26:04.310Z,31.07
2023-02-18T01:28:31.372Z,31.05
2023-02-18T01:31:05.227Z,31.06
2023-02-18T01:33:32.319Z,30.99
2023-02-18T01:36:01.369Z,31.21
2023-02-18T01:38:28.717Z,30.98
2023-02-18T01:40:55.753Z,31.13
2023-02-18T01:43:23.158Z,31.16
2023-02-18T01:46:05.871Z,31.07
2023-02-18T01:48:38.004Z,31.11
2023-02-18T01:51:10.489Z,31.25
2023-02-18T01:53:43.895Z,31.19
2023-02-18T01:56:19.540Z,31.16
2023-02-18T01:58:46.554Z,31.10
2023-02-18T02:01:15.006Z,31.25
2023-02-18T02:03:41.965Z,31.13
2023-02-18T02:06:16.277Z,31.28
2023-02-18T02:08:44.837Z,30.99
2023-02-18T02:11:22.643Z,31.26
2023-02-18T02:14:10.466Z,31.17
2023-02-18T02:16:45.013Z,31.22
2023-02-18T02:19:45.566Z,31.31
2023-02-18T02:22:41.794Z,31.33
2023-02-18T02:25:20.582Z,31.42
2023-02-18T02:28:15.026Z,31.31
2023-02-18T02:31:18.980Z,31.23
2023-02-18T02:34:37.414Z,31.32
2023-02-18T02:37:12.958Z,31.57
2023-02-18T02:39:49.525Z,31.63
2023-02-18T02:42:24.361Z,30.97
2023-02-18T02:44:57.237Z,31.24
2023-02-18T02:47:32.140Z,31.38
2023-02-18T02:50:04.602Z,31.33
2023-02-18T02:52:38.557Z,31.35
2023-02-18T02:55:09.343Z,31.41
2023-02-18T02:57:47.364Z,31.40
2023-02-18T03:00:23.130Z,31.41
2023-02-18T03:03:10.687Z,31.33
2023-02-18T03:05:53.222Z,31.40
2023-02-18T03:08:28.235Z,31.41
2023-02-18T03:11:03.454Z,31.49
2023-02-18T03:13:48.018Z,31.43
2023-02-18T03:16:26.585Z,31.41
2023-02-18T03:19:00.238Z,31.47
2023-02-18T03:21:31.782Z,31.40
2023-02-18T03:24:06.934Z,31.57
2023-02-18T03:26:40.069Z,31.50
2023-02-18T03:29:08.889Z,31.45
2023-02-18T03:31:39.068Z,31.49
2023-02-18T03:34:09.574Z,31.35
2023-02-18T03:36:38.237Z,31.38
2023-02-18T03:39:11.410Z,31.57
2023-02-18T03:41:38.398Z,31.48
2023-02-18T03:44:07.927Z,31.41
2023-02-18T03:46:36.900Z,31.42
2023-02-18T03:49:04.819Z,31.58
2023-02-18T03:51:32.064Z,31.49
2023-02-18T03:53:58.947Z,31.30
2023-02-18T03:56:27.328Z,31.46
2023-02-18T03:58:54.244Z,31.48
2023-02-18T04:01:21.148Z,31.03
2023-02-18T04:03:48.051Z,31.46
2023-02-18T04:06:14.973Z,31.46
2023-02-18T04:08:42.942Z,31.35
2023-02-18T04:11:09.805Z,31.53
2023-02-18T04:13:38.040Z,31.61
2023-02-18T04:16:06.026Z,31.50
2023-02-18T04:18:33.353Z,31.54
2023-02-18T04:21:00.280Z,31.50
2023-02-18T04:23:27.238Z,31.55
2023-02-18T04:25:54.151Z,31.55
2023-02-18T04:28:21.098Z,31.50
2023-02-18T04:30:49.493Z,31.62
2023-02-18T04:33:16.641Z,31.53
2023-02-18T04:35:43.617Z,31.51
2023-02-18T04:38:12.105Z,31.56
2023-02-18T04:40:38.926Z,31.63
2023-02-18T04:43:05.841Z,31.61
2023-02-18T04:45:32.795Z,31.73
2023-02-18T04:48:01.001Z,31.58
2023-02-18T04:50:28.023Z,31.76
2023-02-18T04:52:54.993Z,31.54
2023-02-18T04:55:21.987Z,31.57
2023-02-18T04:57:48.914Z,31.61
2023-02-18T05:00:18.660Z,31.72
2023-02-18T05:02:46.497Z,31.57
2023-02-18T05:05:15.122Z,31.56
2023-02-18T05:07:44.987Z,31.66
2023-02-18T05:10:16.427Z,31.73
2023-02-18T05:12:43.109Z,31.62
2023-02-18T05:15:10.224Z,31.66
2023-02-18T05:17:37.455Z,31.68
2023-02-18T05:20:08.938Z,31.66
2023-02-18T05:22:39.097Z,31.92
2023-02-18T05:25:07.558Z,31.68
2023-02-18T05:27:34.700Z,31.65
2023-02-18T05:30:01.666Z,31.50
2023-02-18T05:32:28.670Z,31.74
2023-02-18T05:34:55.649Z,31.69
2023-02-18T05:37:22.591Z,31.78
2023-02-18T05:39:50.895Z,31.68
2023-02-18T05:42:17.863Z,31.78
2023-02-18T05:44:44.889Z,31.76
2023-02-18T05:47:13.247Z,31.59
2023-02-18T05:49:42.124Z,31.82
2023-02-18T05:52:09.733Z,31.72
2023-02-18T05:54:37.611Z,31.58
2023-02-18T05:57:06.023Z,32.13
2023-02-18T05:59:33.290Z,31.84
2023-02-18T06:02:00.728Z,31.68
2023-02-18T06:04:27.826Z,31.63
2023-02-18T06:06:54.859Z,31.73
2023-02-18T06:09:24.222Z,31.92
2023-02-18T06:11:51.725Z,31.75
2023-02-18T06:14:20.859Z,31.71
2023-02-18T06:16:47.737Z,31.76
2023-02-18T06:19:14.676Z,31.81
2023-02-18T06:21:41.539Z,31.73
2023-02-18T06:24:08.808Z,31.72
2023-02-18T06:26:35.774Z,31.73
2023-02-18T06:29:02.727Z,31.81
2023-02-18T06:31:31.249Z,31.87
2023-02-18T06:33:58.273Z,31.85
2023-02-18T06:36:25.137Z,31.84
2023-02-18T06:38:52.135Z,31.68
2023-02-18T06:41:19.097Z,31.90
2023-02-18T06:43:46.007Z,31.84
2023-02-18T06:46:12.861Z,31.85
2023-02-18T06:48:41.165Z,31.84
2023-02-18T06:51:08.362Z,31.76
2023-02-18T06:53:35.304Z,31.72
2023-02-18T06:56:02.324Z,31.92
2023-02-18T06:58:29.255Z,31.57
2023-02-18T07:00:56.205Z,31.42
2023-02-18T07:03:23.096Z,31.27
2023-02-18T07:05:51.386Z,31.29
2023-02-18T07:08:18.715Z,31.03
2023-02-18T07:10:45.668Z,31.04
2023-02-18T07:13:12.638Z,30.89
2023-02-18T07:15:39.627Z,30.71
2023-02-18T07:18:06.711Z,30.58
2023-02-18T07:20:33.767Z,30.42
2023-02-18T07:23:02.006Z,30.38
2023-02-18T07:25:28.909Z,30.44
2023-02-18T07:27:55.812Z,30.19
2023-02-18T07:30:22.816Z,30.29
2023-02-18T07:32:49.690Z,30.10
2023-02-18T07:35:17.487Z,29.98
2023-02-18T07:37:45.652Z,29.90
2023-02-18T07:40:16.261Z,29.83
2023-02-18T07:42:43.197Z,29.58
2023-02-18T07:45:10.970Z,29.90
2023-02-18T07:47:38.058Z,29.38
2023-02-18T07:50:06.209Z,29.79
2023-02-18T07:52:33.394Z,29.59
2023-02-18T07:55:00.316Z,29.35
2023-02-18T07:57:28.614Z,29.61
2023-02-18T07:59:55.490Z,29.71
2023-02-18T08:02:23.974Z,29.16
2023-02-18T08:04:51.407Z,29.41
2023-02-18T08:07:20.637Z,29.32
2023-02-18T08:09:49.145Z,29.45
2023-02-18T08:12:16.413Z,29.86
2023-02-18T08:14:44.678Z,29.69
2023-02-18T08:17:11.583Z,29.50
2023-02-18T08:19:38.483Z,28.86
2023-02-18T08:22:05.395Z,28.93
2023-02-18T08:24:32.433Z,29.13
2023-02-18T08:27:01.055Z,29.40
2023-02-18T08:29:28.713Z,29.54
2023-02-18T08:32:00.155Z,29.45
2023-02-18T08:34:26.938Z,29.33
2023-02-18T08:36:53.861Z,29.43
2023-02-18T08:39:20.850Z,29.54
2023-02-18T08:41:47.702Z,29.74
2023-02-18T08:44:14.686Z,29.70
2023-02-18T08:46:41.768Z,30.24
2023-02-18T08:49:10.042Z,29.84
2023-02-18T08:51:36.999Z,29.94
2023-02-18T08:54:04.126Z,30.08
2023-02-18T08:56:32.606Z,30.11
2023-02-18T08:58:59.727Z,30.04
2023-02-18T09:01:26.827Z,30.24
2023-02-18T09:03:53.792Z,30.23
2023-02-18T09:06:22.174Z,30.14
2023-02-18T09:08:49.253Z,30.08
2023-02-18T09:11:16.987Z,29.87
2023-02-18T09:13:43.983Z,29.84
2023-02-18T09:16:13.467Z,30.01
2023-02-18T09:18:40.732Z,30.21
2023-02-18T09:21:09.922Z,30.13
2023-02-18T09:23:39.134Z,30.33
2023-02-18T09:26:07.662Z,30.49
2023-02-18T09:28:34.674Z,30.35
2023-02-18T09:31:05.451Z,30.16
2023-02-18T09:33:34.467Z,30.05
2023-02-18T09:36:01.666Z,30.15
2023-02-18T09:38:28.615Z,30.37
2023-02-18T09:41:00.398Z,30.53
2023-02-18T09:43:33.743Z,30.28
2023-02-18T09:46:02.301Z,30.46
2023-02-18T09:48:32.199Z,30.47
2023-02-18T09:50:59.917Z,30.41
2023-02-18T09:53:27.624Z,30.52
2023-02-18T09:55:57.444Z,30.49
2023-02-18T09:58:29.087Z,30.88
2023-02-18T10:01:03.652Z,30.29
2023-02-18T10:03:30.968Z,30.73
2023-02-18T10:06:00.857Z,30.83
2023-02-18T10:08:30.954Z,30.78
2023-02-18T10:10:59.324Z,30.49
2023-02-18T10:13:29.934Z,30.78
2023-02-18T10:15:56.911Z,30.75
2023-02-18T10:18:27.778Z,30.95
2023-02-18T10:21:03.680Z,30.88
2023-02-18T10:23:32.952Z,30.97
2023-02-18T10:26:04.940Z,31.00
2023-02-18T10:28:35.157Z,30.90
2023-02-18T10:31:09.791Z,31.11
2023-02-18T10:33:45.924Z,31.26
2023-02-18T10:36:29.796Z,30.84
2023-02-18T10:39:09.199Z,31.28
2023-02-18T10:41:45.903Z,31.34
2023-02-18T10:44:24.387Z,31.26
2023-02-18T10:47:00.030Z,30.96
2023-02-18T10:49:50.458Z,30.92
2023-02-18T10:52:19.454Z,30.95
2023-02-18T10:54:57.852Z,31.21
2023-02-18T10:57:27.054Z,30.97
2023-02-18T10:59:59.822Z,31.22
2023-02-18T11:02:31.481Z,30.69
2023-02-18T11:05:01.848Z,31.01
2023-02-18T11:07:33.296Z,31.11
2023-02-18T11:10:00.864Z,31.17
2023-02-18T11:12:31.176Z,31.29
2023-02-18T11:15:17.643Z,31.14
2023-02-18T11:17:46.984Z,31.38
2023-02-18T11:20:31.711Z,30.91
2023-02-18T11:23:13.527Z,31.17
2023-02-18T11:25:42.383Z,31.49
2023-02-18T11:28:40.577Z,31.26
2023-02-18T11:31:09.784Z,31.50
2023-02-18T11:33:39.930Z,31.45
2023-02-18T11:36:18.383Z,31.34
2023-02-18T11:38:49.374Z,31.61
2023-02-18T11:41:19.012Z,31.63
2023-02-18T11:43:49.788Z,31.25
2023-02-18T11:46:18.288Z,31.19
2023-02-18T11:48:45.604Z,31.89
2023-02-18T11:51:18.100Z,31.81
2023-02-18T11:53:56.220Z,31.74
2023-02-18T11:56:23.159Z,31.68
2023-02-18T11:58:52.377Z,31.27
2023-02-18T12:01:31.690Z,31.17
2023-02-18T12:04:05.725Z,31.11
2023-02-18T12:06:38.621Z,31.14
2023-02-18T12:09:16.030Z,30.85
2023-02-18T12:11:48.073Z,31.34
2023-02-18T12:14:19.192Z,31.23
2023-02-18T12:17:02.901Z,30.99
2023-02-18T12:19:47.284Z,31.44
2023-02-18T12:22:18.672Z,31.34
2023-02-18T12:24:54.845Z,31.23
2023-02-18T12:27:28.805Z,31.49
2023-02-18T12:30:23.022Z,31.55
2023-02-18T12:32:53.596Z,31.18
2023-02-18T12:35:43.345Z,31.12
2023-02-18T12:38:35.103Z,31.31
2023-02-18T12:41:15.758Z,31.23
2023-02-18T12:43:53.398Z,31.19
2023-02-18T12:46:41.035Z,30.96
2023-02-18T12:49:30.444Z,31.37
2023-02-18T12:52:12.853Z,30.99
2023-02-18T12:54:58.259Z,31.17
2023-02-18T12:57:34.904Z,31.14
2023-02-18T13:00:26.831Z,31.24
2023-02-18T13:03:12.870Z,31.13
2023-02-18T13:05:48.666Z,31.30
2023-02-18T13:08:28.547Z,31.41
2023-02-18T13:11:11.713Z,31.39
2023-02-18T13:13:42.812Z,31.17
2023-02-18T13:16:12.757Z,31.57
2023-02-18T13:18:44.451Z,31.56
2023-02-18T13:21:13.492Z,31.37
2023-02-18T13:23:48.622Z,31.30
2023-02-18T13:26:18.923Z,31.14
2023-02-18T13:28:51.585Z,31.35
2023-02-18T13:31:37.444Z,31.03
2023-02-18T13:34:15.001Z,31.35
2023-02-18T13:36:52.269Z,31.53
2023-02-18T13:39:22.171Z,31.40
2023-02-18T13:41:51.390Z,31.30
2023-02-18T13:44:40.513Z,31.22
2023-02-18T13:47:09.631Z,31.47
2023-02-18T13:49:41.055Z,31.62
2023-02-18T13:52:16.922Z,31.52
2023-02-18T13:54:46.915Z,31.78
2023-02-18T13:57:15.829Z,31.88
2023-02-18T13:59:45.963Z,31.67
2023-02-18T14:02:31.740Z,31.49
2023-02-18T14:05:16.213Z,31.88
2023-02-18T14:07:49.727Z,31.41
2023-02-18T14:10:30.191Z,31.84
2023-02-18T14:13:24.075Z,31.67
2023-02-18T14:15:56.446Z,31.45
2023-02-18T14:18:26.415Z,31.58
2023-02-18T14:21:05.851Z,31.64
2023-02-18T14:23:45.129Z,31.69
2023-02-18T14:26:24.008Z,31.49
2023-02-18T14:28:55.366Z,31.34
2023-02-18T14:31:30.520Z,31.72
2023-02-18T14:34:30.629Z,31.76
2023-02-18T14:37:10.556Z,31.70
2023-02-18T14:39:49.510Z,31.69
2023-02-18T14:42:27.242Z,31.76
2023-02-18T14:45:15.725Z,31.27
2023-02-18T14:48:05.744Z,31.30
2023-02-18T14:50:35.389Z,31.38
2023-02-18T14:53:10.640Z,31.39
2023-02-18T14:55:40.902Z,31.38
2023-02-18T14:58:16.599Z,31.35
2023-02-18T15:00:44.854Z,31.45
2023-02-18T15:03:15.298Z,31.05
2023-02-18T15:05:43.418Z,31.37
2023-02-18T15:08:16.788Z,31.07
2023-02-18T15:10:48.238Z,31.05
2023-02-18T15:13:16.979Z,31.03
2023-02-18T15:15:45.946Z,31.01
2023-02-18T15:18:22.116Z,30.91
2023-02-18T15:20:49.634Z,30.97
2023-02-18T15:23:18.540Z,31.22
2023-02-18T15:25:50.336Z,31.08
2023-02-18T15:28:23.466Z,31.14
2023-02-18T15:30:50.457Z,31.09
2023-02-18T15:33:20.766Z,30.97
2023-02-18T15:35:48.168Z,30.81
2023-02-18T15:38:18.255Z,30.90
2023-02-18T15:40:49.331Z,31.29
2023-02-18T15:43:20.357Z,30.90
2023-02-18T15:45:49.166Z,31.06
2023-02-18T15:48:23.806Z,31.03
2023-02-18T15:50:53.686Z,30.80
2023-02-18T15:53:23.432Z,31.12
2023-02-18T15:55:53.964Z,30.70
2023-02-18T15:58:25.042Z,30.91
2023-02-18T16:00:53.859Z,30.97
2023-02-18T16:03:22.689Z,30.77
2023-02-18T16:05:50.261Z,30.80
2023-02-18T16:08:24.708Z,30.66
2023-02-18T16:10:56.183Z,30.88
2023-02-18T16:13:25.113Z,31.04
2023-02-18T16:15:53.788Z,30.68
2023-02-18T16:18:28.707Z,31.18
2023-02-18T16:20:59.803Z,31.07
2023-02-18T16:23:31.532Z,30.74
2023-02-18T16:26:11.650Z,30.97
2023-02-18T16:28:42.872Z,31.17
2023-02-18T16:31:10.002Z,30.57
2023-02-18T16:33:37.006Z,30.61
2023-02-18T16:36:04.792Z,31.03
2023-02-18T16:38:32.674Z,30.80
2023-02-18T16:41:01.002Z,30.76
2023-02-18T16:43:32.766Z,30.66
2023-02-18T16:46:07.668Z,31.14
2023-02-18T16:48:37.492Z,30.96
2023-02-18T16:51:07.684Z,30.79
2023-02-18T16:53:34.603Z,30.86
2023-02-18T16:56:03.115Z,30.93
2023-02-18T16:58:30.025Z,30.61
2023-02-18T17:00:57.613Z,30.67
2023-02-18T17:03:24.625Z,30.64
2023-02-18T17:05:51.574Z,30.92
2023-02-18T17:08:22.996Z,30.78
2023-02-18T17:10:50.495Z,30.66
2023-02-18T17:13:22.280Z,30.97
2023-02-18T17:15:52.085Z,30.92
2023-02-18T17:18:19.403Z,30.69
2023-02-18T17:20:48.904Z,30.67
2023-02-18T17:23:16.998Z,30.78
2023-02-18T17:25:45.578Z,30.97
2023-02-18T17:28:12.567Z,30.75
2023-02-18T17:30:41.851Z,30.70
2023-02-18T17:33:14.981Z,30.90
2023-02-18T17:35:42.129Z,30.82
2023-02-18T17:38:11.057Z,30.94
2023-02-18T17:40:38.271Z,30.62
2023-02-18T17:43:05.232Z,30.39
2023-02-18T17:45:35.795Z,30.81
2023-02-18T17:48:04.504Z,30.78
2023-02-18T17:50:32.248Z,30.71
2023-02-18T17:52:59.360Z,30.67
2023-02-18T17:55:28.431Z,30.73
2023-02-18T17:57:55.511Z,30.60
2023-02-18T18:00:24.709Z,30.47
2023-02-18T18:02:52.160Z,30.56
2023-02-18T18:05:23.683Z,30.92
2023-02-18T18:07:51.723Z,30.61
2023-02-18T18:10:20.103Z,30.43
2023-02-18T18:12:47.044Z,30.50
2023-02-18T18:15:22.996Z,30.52
2023-02-18T18:17:49.926Z,30.55
2023-02-18T18:20:17.002Z,30.54
2023-02-18T18:22:45.387Z,30.73
2023-02-18T18:25:24.268Z,30.72
2023-02-18T18:27:52.890Z,30.43
2023-02-18T18:30:22.661Z,30.60
2023-02-18T18:32:49.989Z,30.69
2023-02-18T18:35:20.667Z,30.94
2023-02-18T18:37:49.226Z,30.56
2023-02-18T18:40:17.121Z,31.08
2023-02-18T18:42:44.073Z,30.61
2023-02-18T18:45:21.462Z,30.82
2023-02-18T18:47:48.826Z,30.84
2023-02-18T18:50:16.849Z,30.46
2023-02-18T18:52:44.542Z,30.47
2023-02-18T18:55:20.099Z,30.55
2023-02-18T18:57:47.361Z,31.06
2023-02-18T19:00:15.653Z,30.82
2023-02-18T19:02:42.610Z,30.66
2023-02-18T19:05:17.900Z,30.65
2023-02-18T19:07:44.851Z,30.80
2023-02-18T19:10:11.654Z,30.73
2023-02-18T19:12:40.092Z,30.44
2023-02-18T19:15:10.000Z,30.31
2023-02-18T19:17:36.851Z,30.41
2023-02-18T19:20:03.806Z,30.41
2023-02-18T19:22:30.659Z,30.66
2023-02-18T19:24:57.589Z,30.27
2023-02-18T19:27:24.684Z,30.36
2023-02-18T19:29:54.323Z,30.58
2023-02-18T19:32:21.253Z,30.26
2023-02-18T19:34:48.102Z,30.33
2023-02-18T19:37:15.007Z,30.56
2023-02-18T19:39:41.962Z,30.66
2023-02-18T19:42:08.855Z,30.54
2023-02-18T19:44:35.735Z,30.44
2023-02-18T19:47:04.164Z,30.43
2023-02-18T19:49:31.021Z,30.59
2023-02-18T19:52:03.940Z,30.60
2023-02-18T19:54:31.283Z,30.55
2023-02-18T19:56:58.525Z,30.60
2023-02-18T19:59:25.402Z,30.55
2023-02-18T20:01:52.312Z,30.45
2023-02-18T20:04:20.803Z,30.53
2023-02-18T20:06:47.738Z,30.61
2023-02-18T20:09:14.849Z,30.26
2023-02-18T20:11:41.789Z,30.91
2023-02-18T20:14:08.748Z,30.41
2023-02-18T20:16:35.653Z,30.31
2023-02-18T20:19:02.591Z,30.56
2023-02-18T20:21:31.018Z,30.49
2023-02-18T20:23:58.313Z,30.29
2023-02-18T20:26:25.200Z,30.47
2023-02-18T20:28:52.158Z,30.63
2023-02-18T20:31:19.181Z,30.67
2023-02-18T20:33:46.076Z,30.44
2023-02-18T20:36:14.144Z,30.55
2023-02-18T20:38:42.784Z,30.27
2023-02-18T20:41:14.515Z,30.27
2023-02-18T20:43:41.534Z,30.60
2023-02-18T20:46:12.697Z,30.48
2023-02-18T20:48:40.036Z,30.55
2023-02-18T20:51:08.480Z,30.52
2023-02-18T20:53:37.366Z,30.71
2023-02-18T20:56:06.934Z,30.71
2023-02-18T20:58:34.505Z,30.51
2023-02-18T21:01:04.506Z,30.76
2023-02-18T21:03:32.920Z,30.75
2023-02-18T21:06:01.876Z,30.87
2023-02-18T21:08:29.430Z,31.04
2023-02-18T21:10:57.259Z,30.84
2023-02-18T21:13:26.282Z,30.58
2023-02-18T21:15:53.200Z,30.93
2023-02-18T21:18:20.255Z,30.67
2023-02-18T21:20:47.410Z,30.67
2023-02-18T21:23:15.381Z,30.87
2023-02-18T21:25:42.227Z,30.84
2023-02-18T21:28:09.188Z,31.16
2023-02-18T21:30:40.347Z,30.97
2023-02-18T21:33:07.618Z,30.91
2023-02-18T21:35:35.422Z,30.84
2023-02-18T21:38:02.385Z,30.90
2023-02-18T21:40:30.972Z,31.07
2023-02-18T21:42:57.947Z,31.00
2023-02-18T21:45:26.887Z,30.76
2023-02-18T21:47:55.154Z,30.89
2023-02-18T21:50:21.990Z,31.10
2023-02-18T21:52:48.863Z,30.81
2023-02-18T21:55:15.837Z,30.94
2023-02-18T21:57:42.726Z,30.87
2023-02-18T22:00:19.905Z,31.11
2023-02-18T22:02:47.277Z,30.94
2023-02-18T22:05:15.628Z,31.09
2023-02-18T22:07:42.495Z,31.20
2023-02-18T22:10:09.836Z,31.24
2023-02-18T22:12:36.677Z,30.81
2023-02-18T22:15:04.531Z,31.01
2023-02-18T22:17:32.161Z,31.10
2023-02-18T22:19:59.028Z,31.02
2023-02-18T22:22:27.384Z,31.00
2023-02-18T22:24:54.375Z,31.15
2023-02-18T22:27:21.249Z,30.81
2023-02-18T22:29:48.206Z,30.94
2023-02-18T22:32:15.247Z,30.83
2023-02-18T22:34:42.438Z,31.15
2023-02-18T22:37:09.447Z,31.15
2023-02-18T22:39:37.900Z,30.98
2023-02-18T22:42:05.336Z,30.91
2023-02-18T22:44:32.222Z,30.99
2023-02-18T22:46:59.074Z,31.03
2023-02-18T22:49:26.144Z,31.01
2023-02-18T22:51:54.440Z,30.92
2023-02-18T22:54:21.621Z,31.01
2023-02-18T22:56:49.928Z,31.25
2023-02-18T22:59:19.398Z,31.03
2023-02-18T23:01:52.767Z,31.05
2023-02-18T23:04:20.593Z,30.98
2023-02-18T23:06:48.252Z,30.99
2023-02-18T23:09:17.383Z,31.11
2023-02-18T23:11:44.397Z,31.10
2023-02-18T23:14:18.523Z,30.91
2023-02-18T23:17:05.099Z,30.88
2023-02-18T23:19:33.534Z,31.04
2023-02-18T23:22:00.503Z,31.15
2023-02-18T23:24:27.726Z,31.05
2023-02-18T23:26:54.698Z,31.01
2023-02-18T23:29:23.096Z,30.96
2023-02-18T23:31:50.029Z,31.17
2023-02-18T23:34:17.745Z,30.84
2023-02-18T23:36:45.998Z,31.08
2023-02-18T23:39:16.346Z,30.84
2023-02-18T23:41:43.288Z,31.05
2023-02-18T23:44:12.149Z,30.97
2023-02-18T23:46:40.807Z,31.07
2023-02-18T23:49:07.948Z,30.93
2023-02-18T23:51:34.891Z,31.16
2023-02-18T23:54:02.807Z,31.07
2023-02-18T23:56:29.942Z,31.06
2023-02-18T23:59:00.419Z,31.06
